createdAt,value
2023-02-15T00:01:46.334Z,18.47
2023-02-15T00:04:19.926Z,23.50
2023-02-15T00:06:51.523Z,35.53
2023-02-15T00:09:22.929Z,26.17
2023-02-15T00:11:54.183Z,18.97
2023-02-15T00:14:25.466Z,19.60
2023-02-15T00:17:00.560Z,28.20
2023-02-15T00:19:32.325Z,25.50
2023-02-15T00:22:03.596Z,24.20
2023-02-15T00:24:34.911Z,22.30
2023-02-15T00:27:06.412Z,25.50
2023-02-15T00:29:37.768Z,19.93
2023-02-15T00:32:09.012Z,27.60
2023-02-15T00:34:40.265Z,16.97
2023-02-15T00:37:11.589Z,41.67
2023-02-15T00:39:42.867Z,22.63
2023-02-15T00:42:14.123Z,24.97
2023-02-15T00:44:45.474Z,24.60
2023-02-15T00:47:16.840Z,17.67
2023-02-15T00:49:48.113Z,28.43
2023-02-15T00:52:19.847Z,38.33
2023-02-15T00:54:51.186Z,37.07
2023-02-15T00:57:22.470Z,30.07
2023-02-15T00:59:53.734Z,41.23
2023-02-15T01:02:24.992Z,37.97
2023-02-15T01:04:56.292Z,36.23
2023-02-15T01:07:27.568Z,36.73
2023-02-15T01:09:58.844Z,44.37
2023-02-15T01:12:30.103Z,34.10
2023-02-15T01:15:01.602Z,19.73
2023-02-15T01:17:33.282Z,14.30
2023-02-15T01:20:05.609Z,16.53
2023-02-15T01:22:36.857Z,17.47
2023-02-15T01:25:08.248Z,16.17
2023-02-15T01:27:39.520Z,23.30
2023-02-15T01:30:11.955Z,14.43
2023-02-15T01:32:44.228Z,36.63
2023-02-15T01:35:15.596Z,18.77
2023-02-15T01:37:46.924Z,29.50
2023-02-15T01:40:19.488Z,32.63
2023-02-15T01:42:52.321Z,38.07
2023-02-15T01:45:30.343Z,18.47
2023-02-15T01:48:08.948Z,23.30
2023-02-15T01:50:44.065Z,61.73
2023-02-15T01:53:32.927Z,25.17
2023-02-15T01:56:15.094Z,37.87
2023-02-15T01:58:48.121Z,26.27
2023-02-15T02:01:20.423Z,54.20
2023-02-15T02:04:05.910Z,69.17
2023-02-15T02:06:38.922Z,63.10
2023-02-15T02:09:11.145Z,59.27
2023-02-15T02:11:46.245Z,32.77
2023-02-15T02:14:18.619Z,36.63
2023-02-15T02:17:07.881Z,39.80
2023-02-15T02:20:03.770Z,48.93
2023-02-15T02:23:05.169Z,35.97
2023-02-15T02:25:57.348Z,45.40
2023-02-15T02:28:34.420Z,38.80
2023-02-15T02:31:27.047Z,49.90
2023-02-15T02:34:32.334Z,40.93
2023-02-15T02:37:25.445Z,24.50
2023-02-15T02:40:14.957Z,28.63
2023-02-15T02:43:21.870Z,24.97
2023-02-15T02:45:59.553Z,14.45
2023-02-15T02:48:34.040Z,13.67
2023-02-15T02:51:05.477Z,11.70
2023-02-15T02:53:36.994Z,11.47
2023-02-15T02:56:22.725Z,10.93
2023-02-15T02:59:13.087Z,10.90
2023-02-15T03:01:56.590Z,11.67
2023-02-15T03:04:33.591Z,13.63
2023-02-15T03:07:12.971Z,12.57
2023-02-15T03:09:49.337Z,23.53
2023-02-15T03:14:59.859Z,23.37
2023-02-15T03:17:36.449Z,18.20
2023-02-15T03:20:30.559Z,23.73
2023-02-15T03:23:08.405Z,21.43
2023-02-15T03:25:47.250Z,22.90
2023-02-15T03:28:26.515Z,21.10
2023-02-15T03:31:01.774Z,15.37
2023-02-15T03:33:36.718Z,13.33
2023-02-15T03:36:21.087Z,22.20
2023-02-15T03:39:21.336Z,12.77
2023-02-15T03:42:03.179Z,11.37
2023-02-15T03:44:44.054Z,21.43
2023-02-15T03:47:26.641Z,14.80
2023-02-15T03:50:46.063Z,20.80
2023-02-15T03:53:22.115Z,20.03
2023-02-15T03:55:56.638Z,29.52
2023-02-15T03:58:46.666Z,34.03
2023-02-15T04:01:57.924Z,32.27
2023-02-15T04:04:34.426Z,47.13
2023-02-15T04:07:08.438Z,46.77
2023-02-15T04:09:58.443Z,24.33
2023-02-15T04:12:29.712Z,28.10
2023-02-15T04:15:19.726Z,16.10
2023-02-15T04:17:50.988Z,13.97
2023-02-15T04:20:40.862Z,18.30
2023-02-15T04:23:30.873Z,15.13
2023-02-15T04:26:05.494Z,14.30
2023-02-15T04:28:36.862Z,10.90
2023-02-15T04:31:08.240Z,10.97
2023-02-15T04:33:39.563Z,13.47
2023-02-15T04:36:10.902Z,18.43
2023-02-15T04:38:42.178Z,12.63
2023-02-15T04:41:13.998Z,11.23
2023-02-15T04:43:45.256Z,12.30
2023-02-15T04:46:16.750Z,11.13
2023-02-15T04:48:48.134Z,9.53
2023-02-15T04:51:19.569Z,11.63
2023-02-15T04:53:53.320Z,9.27
2023-02-15T04:56:24.593Z,10.90
2023-02-15T04:58:55.860Z,12.23
2023-02-15T05:01:27.348Z,17.47
2023-02-15T05:03:58.685Z,17.80
2023-02-15T05:06:30.436Z,10.87
2023-02-15T05:09:02.390Z,11.90
2023-02-15T05:11:33.687Z,14.67
2023-02-15T05:14:05.554Z,15.47
2023-02-15T05:16:36.972Z,14.43
2023-02-15T05:19:08.345Z,14.27
2023-02-15T05:21:39.625Z,18.50
2023-02-15T05:24:29.536Z,18.17
2023-02-15T05:27:19.186Z,15.03
2023-02-15T05:29:50.588Z,19.33
2023-02-15T05:32:22.050Z,19.30
2023-02-15T05:34:53.612Z,19.17
2023-02-15T05:37:24.887Z,11.47
2023-02-15T05:39:56.150Z,17.87
2023-02-15T05:42:27.402Z,14.30
2023-02-15T05:44:58.671Z,12.37
2023-02-15T05:47:30.635Z,13.97
2023-02-15T05:50:01.930Z,13.13
2023-02-15T05:52:33.203Z,12.20
2023-02-15T05:55:05.610Z,11.30
2023-02-15T05:57:37.106Z,12.47
2023-02-15T06:00:10.728Z,10.77
2023-02-15T06:02:42.147Z,11.00
2023-02-15T06:05:13.508Z,11.77
2023-02-15T06:07:45.741Z,11.87
2023-02-15T06:10:17.161Z,10.13
2023-02-15T06:12:48.440Z,9.87
2023-02-15T06:15:19.794Z,13.97
2023-02-15T06:17:51.039Z,11.87
2023-02-15T06:20:22.424Z,10.93
2023-02-15T06:22:56.077Z,9.67
2023-02-15T06:25:28.759Z,7.80
2023-02-15T06:28:00.106Z,7.83
2023-02-15T06:30:31.678Z,8.23
2023-02-15T06:33:03.336Z,8.37
2023-02-15T06:35:34.663Z,7.87
2023-02-15T06:38:07.378Z,7.33
2023-02-15T06:40:38.678Z,7.37
2023-02-15T06:43:09.958Z,7.83
2023-02-15T06:45:42.228Z,7.00
2023-02-15T06:48:14.389Z,8.33
2023-02-15T06:50:49.051Z,7.30
2023-02-15T06:53:20.471Z,8.53
2023-02-15T06:55:51.765Z,7.33
2023-02-15T06:58:23.039Z,8.33
2023-02-15T07:00:54.333Z,8.30
2023-02-15T07:03:25.666Z,8.43
2023-02-15T07:05:58.559Z,7.33
2023-02-15T07:08:30.349Z,9.47
2023-02-15T07:11:20.759Z,8.20
2023-02-15T07:13:53.536Z,11.40
2023-02-15T07:16:24.895Z,10.20
2023-02-15T07:18:56.226Z,8.90
2023-02-15T07:21:27.733Z,14.30
2023-02-15T07:23:59.299Z,10.83
2023-02-15T07:26:32.977Z,9.77
2023-02-15T07:29:04.253Z,10.30
2023-02-15T07:31:35.827Z,10.03
2023-02-15T07:34:08.201Z,10.53
2023-02-15T07:36:39.477Z,9.33
2023-02-15T07:39:11.640Z,9.10
2023-02-15T07:41:42.897Z,10.37
2023-02-15T07:44:15.689Z,9.37
2023-02-15T07:46:47.002Z,9.00
2023-02-15T07:49:18.321Z,8.80
2023-02-15T07:51:49.613Z,9.70
2023-02-15T07:54:21.015Z,8.93
2023-02-15T07:56:52.250Z,8.90
2023-02-15T07:59:23.595Z,9.03
2023-02-15T08:01:57.114Z,11.20
2023-02-15T08:04:28.435Z,11.10
2023-02-15T08:06:59.695Z,10.53
2023-02-15T08:09:30.944Z,11.43
2023-02-15T08:12:03.157Z,10.07
2023-02-15T08:14:34.529Z,11.57
2023-02-15T08:17:06.003Z,10.53
2023-02-15T08:19:37.441Z,10.03
2023-02-15T08:22:13.396Z,12.13
2023-02-15T08:24:44.645Z,14.25
2023-02-15T08:27:15.958Z,11.90
2023-02-15T08:29:47.223Z,14.20
2023-02-15T08:32:18.525Z,13.37
2023-02-15T08:34:49.977Z,12.63
2023-02-15T08:37:21.295Z,12.10
2023-02-15T08:39:52.748Z,11.53
2023-02-15T08:42:24.029Z,11.23
2023-02-15T08:44:55.307Z,10.17
2023-02-15T08:47:26.578Z,9.53
2023-02-15T08:49:57.839Z,9.90
2023-02-15T08:52:29.123Z,9.43
2023-02-15T08:55:00.374Z,11.07
2023-02-15T08:57:31.658Z,9.50
2023-02-15T09:00:05.581Z,9.60
2023-02-15T09:02:37.917Z,10.33
2023-02-15T09:05:10.006Z,9.83
2023-02-15T09:07:41.250Z,10.80
2023-02-15T09:10:12.525Z,11.80
2023-02-15T09:12:43.888Z,12.53
2023-02-15T09:15:15.430Z,10.67
2023-02-15T09:17:46.698Z,9.83
2023-02-15T09:20:18.490Z,10.00
2023-02-15T09:22:49.748Z,9.40
2023-02-15T09:25:21.378Z,9.83
2023-02-15T09:27:53.156Z,9.77
2023-02-15T09:30:24.844Z,10.00
2023-02-15T09:32:56.189Z,9.57
2023-02-15T09:35:27.521Z,10.07
2023-02-15T09:37:58.845Z,8.70
2023-02-15T09:40:39.259Z,8.93
2023-02-15T09:43:32.112Z,9.10
2023-02-15T09:46:14.338Z,9.00
2023-02-15T09:48:53.082Z,8.50
2023-02-15T09:51:46.203Z,8.57
2023-02-15T09:54:17.562Z,9.20
2023-02-15T09:57:08.701Z,8.70
2023-02-15T09:59:55.682Z,10.40
2023-02-15T10:03:01.693Z,9.53
2023-02-15T10:05:50.328Z,9.20
2023-02-15T10:08:42.172Z,8.47
2023-02-15T10:11:36.652Z,9.47
2023-02-15T10:14:29.866Z,9.13
2023-02-15T10:17:26.923Z,8.83
2023-02-15T10:20:18.930Z,9.32
2023-02-15T10:23:24.475Z,9.03
2023-02-15T10:26:18.984Z,9.03
2023-02-15T10:28:57.527Z,9.37
2023-02-15T10:31:47.736Z,8.77
2023-02-15T10:34:40.767Z,8.73
2023-02-15T10:37:39.136Z,8.77
2023-02-15T10:40:35.370Z,9.60
2023-02-15T10:43:31.387Z,8.93
2023-02-15T10:46:34.413Z,9.37
2023-02-15T10:49:08.794Z,9.20
2023-02-15T10:51:43.024Z,9.10
2023-02-15T10:54:47.001Z,9.10
2023-02-15T10:57:34.259Z,10.07
2023-02-15T11:00:18.831Z,9.10
2023-02-15T11:03:08.917Z,10.40
2023-02-15T11:05:50.083Z,9.10
2023-02-15T11:08:24.417Z,9.23
2023-02-15T11:11:02.875Z,9.23
2023-02-15T11:13:40.139Z,8.90
2023-02-15T11:16:24.081Z,11.67
2023-02-15T11:19:05.484Z,9.80
2023-02-15T11:21:50.897Z,9.70
2023-02-15T11:24:26.663Z,10.33
2023-02-15T11:27:06.063Z,9.13
2023-02-15T11:30:01.452Z,9.87
2023-02-15T11:33:02.767Z,8.63
2023-02-15T11:35:49.858Z,8.67
2023-02-15T11:38:25.683Z,8.63
2023-02-15T11:41:04.689Z,9.27
2023-02-15T11:43:49.553Z,10.23
2023-02-15T11:46:22.432Z,10.30
2023-02-15T11:48:53.736Z,10.87
2023-02-15T11:51:27.976Z,10.67
2023-02-15T11:53:59.586Z,11.30
2023-02-15T11:56:32.651Z,12.07
2023-02-15T11:59:22.341Z,14.20
2023-02-15T12:01:53.689Z,10.90
2023-02-15T12:04:30.232Z,10.43
2023-02-15T12:07:16.097Z,10.47
2023-02-15T12:09:57.212Z,9.85
2023-02-15T12:12:31.020Z,12.33
2023-02-15T12:15:07.763Z,9.23
2023-02-15T12:17:53.762Z,11.10
2023-02-15T12:20:33.793Z,9.75
2023-02-15T12:23:12.644Z,10.60
2023-02-15T12:25:54.376Z,11.27
2023-02-15T12:28:30.486Z,10.87
2023-02-15T12:31:07.907Z,10.23
2023-02-15T12:33:46.477Z,10.50
2023-02-15T12:36:30.010Z,11.37
2023-02-15T12:39:06.277Z,11.73
2023-02-15T12:41:38.517Z,10.70
2023-02-15T12:44:24.183Z,11.50
2023-02-15T12:47:29.208Z,11.30
2023-02-15T12:50:34.671Z,13.07
2023-02-15T12:53:24.516Z,12.07
2023-02-15T12:56:04.975Z,11.83
2023-02-15T12:58:40.624Z,12.53
2023-02-15T13:01:18.615Z,14.15
2023-02-15T13:04:22.773Z,13.33
2023-02-15T13:06:58.475Z,13.43
2023-02-15T13:09:32.802Z,12.25
2023-02-15T13:12:16.846Z,13.00
2023-02-15T13:14:53.281Z,12.43
2023-02-15T13:17:30.378Z,13.50
2023-02-15T13:20:24.667Z,12.57
2023-02-15T13:23:14.410Z,13.43
2023-02-15T13:25:51.148Z,12.23
2023-02-15T13:28:28.639Z,12.00
2023-02-15T13:31:00.075Z,12.63
2023-02-15T13:33:35.837Z,12.03
2023-02-15T13:36:18.937Z,11.77
2023-02-15T13:39:21.159Z,11.87
2023-02-15T13:42:06.860Z,13.83
2023-02-15T13:44:59.163Z,13.00
2023-02-15T13:48:08.782Z,12.97
2023-02-15T13:50:56.038Z,12.90
2023-02-15T13:53:57.876Z,11.13
2023-02-15T13:57:01.954Z,12.20
2023-02-15T13:59:49.081Z,11.93
2023-02-15T14:02:39.545Z,11.97
2023-02-15T14:05:23.955Z,11.90
2023-02-15T14:08:12.589Z,11.93
2023-02-15T14:11:02.397Z,12.23
2023-02-15T14:13:42.934Z,11.97
2023-02-15T14:16:34.206Z,12.87
2023-02-15T14:19:28.773Z,12.17
2023-02-15T14:22:16.717Z,12.50
2023-02-15T14:25:06.214Z,11.30
2023-02-15T14:28:00.223Z,11.27
2023-02-15T14:30:36.952Z,13.07
2023-02-15T14:33:33.211Z,12.27
2023-02-15T14:36:09.114Z,11.13
2023-02-15T14:39:27.444Z,10.03
2023-02-15T14:42:10.570Z,11.33
2023-02-15T14:45:28.983Z,11.13
2023-02-15T14:48:22.647Z,11.07
2023-02-15T14:50:53.959Z,10.30
2023-02-15T14:53:28.559Z,11.53
2023-02-15T14:56:11.974Z,13.37
2023-02-15T14:58:53.126Z,11.40
2023-02-15T15:01:30.616Z,10.97
2023-02-15T15:04:37.359Z,10.97
2023-02-15T15:07:26.562Z,11.25
2023-02-15T15:10:23.599Z,12.27
2023-02-15T15:12:56.057Z,11.18
2023-02-15T15:15:27.431Z,11.83
2023-02-15T15:18:08.855Z,12.07
2023-02-15T15:20:46.836Z,12.40
2023-02-15T15:23:21.075Z,13.30
2023-02-15T15:25:55.367Z,12.83
2023-02-15T15:28:35.506Z,13.47
2023-02-15T15:31:35.166Z,11.80
2023-02-15T15:34:40.120Z,14.07
2023-02-15T15:37:23.302Z,13.10
2023-02-15T15:40:33.207Z,12.50
2023-02-15T15:43:33.714Z,13.30
2023-02-15T15:46:39.002Z,12.77
2023-02-15T15:49:16.774Z,12.87
2023-02-15T15:51:49.567Z,13.30
2023-02-15T15:54:24.063Z,12.83
2023-02-15T15:56:59.115Z,12.40
2023-02-15T15:59:32.825Z,13.37
2023-02-15T16:02:06.587Z,13.47
2023-02-15T16:04:38.005Z,13.70
2023-02-15T16:07:18.729Z,14.33
2023-02-15T16:10:05.798Z,13.57
2023-02-15T16:12:40.303Z,14.10
2023-02-15T16:15:18.387Z,14.13
2023-02-15T16:17:55.724Z,13.70
2023-02-15T16:20:32.668Z,15.40
2023-02-15T16:23:41.333Z,18.80
2023-02-15T16:26:43.928Z,17.30
2023-02-15T16:29:27.664Z,17.50
2023-02-15T16:32:19.457Z,16.97
2023-02-15T16:34:59.786Z,19.40
2023-02-15T16:37:35.609Z,15.40
2023-02-15T16:40:07.783Z,16.42
2023-02-15T16:42:39.182Z,17.00
2023-02-15T16:45:17.349Z,15.83
2023-02-15T16:47:53.702Z,43.67
2023-02-15T16:50:31.585Z,30.23
2023-02-15T16:53:04.202Z,26.23
2023-02-15T16:55:39.662Z,20.40
2023-02-15T16:58:17.480Z,17.25
2023-02-15T17:00:48.909Z,16.83
2023-02-15T17:03:25.030Z,15.27
2023-02-15T17:06:01.813Z,18.40
2023-02-15T17:08:35.446Z,16.53
2023-02-15T17:11:20.044Z,16.70
2023-02-15T17:14:15.100Z,17.73
2023-02-15T17:16:53.378Z,18.27
2023-02-15T17:19:30.323Z,19.47
2023-02-15T17:22:07.601Z,20.30
2023-02-15T17:24:51.983Z,17.70
2023-02-15T17:27:29.477Z,17.00
2023-02-15T17:30:15.995Z,16.27
2023-02-15T17:33:02.755Z,15.95
2023-02-15T17:35:34.300Z,15.50
2023-02-15T17:38:17.687Z,16.80
2023-02-15T17:40:49.030Z,16.53
2023-02-15T17:43:20.353Z,15.63
2023-02-15T17:45:52.714Z,18.30
2023-02-15T17:48:36.378Z,16.70
2023-02-15T17:51:13.496Z,16.80
2023-02-15T17:54:04.387Z,18.17
2023-02-15T17:56:37.077Z,17.87
2023-02-15T17:59:09.458Z,18.60
2023-02-15T18:02:06.251Z,17.40
2023-02-15T18:04:56.632Z,15.77
2023-02-15T18:07:47.719Z,16.23
2023-02-15T18:10:37.827Z,15.17
2023-02-15T18:13:09.089Z,16.33
2023-02-15T18:15:40.397Z,16.07
2023-02-15T18:18:13.281Z,18.90
2023-02-15T18:20:44.730Z,14.57
2023-02-15T18:23:16.117Z,14.77
2023-02-15T18:25:47.392Z,15.07
2023-02-15T18:28:18.639Z,15.17
2023-02-15T18:30:51.007Z,16.13
2023-02-15T18:33:39.764Z,14.43
2023-02-15T18:36:20.406Z,14.83
2023-02-15T18:38:53.326Z,16.30
2023-02-15T18:41:25.120Z,16.10
2023-02-15T18:43:56.783Z,16.30
2023-02-15T18:46:28.138Z,15.67
2023-02-15T18:48:59.459Z,17.40
2023-02-15T18:51:31.649Z,19.87
2023-02-15T18:54:02.981Z,24.87
2023-02-15T18:56:34.277Z,20.60
2023-02-15T18:59:05.587Z,17.13
2023-02-15T19:01:36.914Z,17.50
2023-02-15T19:04:08.209Z,16.37
2023-02-15T19:06:45.968Z,14.77
2023-02-15T19:09:21.181Z,17.13
2023-02-15T19:11:56.020Z,17.23
2023-02-15T19:14:32.282Z,15.80
2023-02-15T19:19:35.333Z,15.73
2023-02-15T19:22:08.882Z,18.53
2023-02-15T19:24:44.008Z,17.93
2023-02-15T19:27:35.755Z,17.60
2023-02-15T19:30:18.441Z,18.40
2023-02-15T19:32:49.961Z,15.53
2023-02-15T19:35:23.539Z,15.73
2023-02-15T19:37:57.878Z,15.60
2023-02-15T19:40:31.660Z,15.37
2023-02-15T19:43:03.970Z,14.07
2023-02-15T19:45:35.232Z,15.23
2023-02-15T19:48:06.592Z,15.07
2023-02-15T19:50:38.017Z,16.97
2023-02-15T19:53:21.166Z,17.83
2023-02-15T19:55:53.118Z,16.60
2023-02-15T19:58:24.491Z,18.70
2023-02-15T20:00:55.851Z,19.37
2023-02-15T20:03:27.155Z,18.97
2023-02-15T20:05:58.541Z,18.70
2023-02-15T20:08:31.314Z,19.13
2023-02-15T20:11:03.004Z,17.90
2023-02-15T20:13:34.480Z,16.27
2023-02-15T20:16:08.242Z,15.67
2023-02-15T20:18:39.538Z,15.93
2023-02-15T20:21:14.965Z,16.53
2023-02-15T20:23:46.795Z,14.90
2023-02-15T20:26:29.575Z,14.97
2023-02-15T20:29:01.966Z,16.40
2023-02-15T20:31:33.451Z,17.47
2023-02-15T20:34:04.871Z,16.07
2023-02-15T20:36:37.649Z,16.40
2023-02-15T20:39:17.145Z,16.60
2023-02-15T20:41:48.552Z,16.60
2023-02-15T20:44:25.693Z,17.10
2023-02-15T20:46:58.968Z,16.43
2023-02-15T20:49:30.428Z,14.90
2023-02-15T20:52:03.771Z,15.47
2023-02-15T20:54:35.938Z,14.97
2023-02-15T20:57:12.205Z,16.30
2023-02-15T21:02:23.667Z,14.67
2023-02-15T21:04:55.427Z,15.00
2023-02-15T21:07:26.834Z,16.83
2023-02-15T21:10:00.145Z,16.00
2023-02-15T21:12:31.557Z,15.77
2023-02-15T21:15:03.176Z,15.13
2023-02-15T21:17:34.447Z,15.50
2023-02-15T21:20:06.419Z,15.00
2023-02-15T21:22:38.085Z,15.53
2023-02-15T21:25:15.700Z,17.07
2023-02-15T21:27:47.007Z,15.27
2023-02-15T21:30:21.624Z,15.17
2023-02-15T21:32:53.320Z,14.50
2023-02-15T21:35:24.680Z,14.40
2023-02-15T21:37:56.242Z,14.87
2023-02-15T21:40:30.667Z,15.17
2023-02-15T21:43:20.371Z,16.20
2023-02-15T21:46:10.126Z,14.83
2023-02-15T21:48:41.453Z,15.67
2023-02-15T21:51:31.473Z,15.73
2023-02-15T21:54:02.741Z,14.77
2023-02-15T21:56:34.008Z,15.10
2023-02-15T21:59:12.779Z,14.37
2023-02-15T22:01:49.689Z,15.17
2023-02-15T22:04:24.995Z,15.37
2023-02-15T22:06:56.663Z,14.50
2023-02-15T22:09:28.120Z,14.30
2023-02-15T22:11:59.463Z,15.40
2023-02-15T22:14:37.232Z,14.50
2023-02-15T22:17:28.030Z,16.90
2023-02-15T22:19:59.291Z,14.93
2023-02-15T22:22:30.771Z,15.67
2023-02-15T22:25:02.057Z,14.83
2023-02-15T22:27:38.943Z,13.93
2023-02-15T22:30:17.477Z,14.90
2023-02-15T22:32:49.103Z,13.30
2023-02-15T22:35:26.595Z,14.00
2023-02-15T22:37:58.246Z,14.30
2023-02-15T22:40:34.282Z,13.30
2023-02-15T22:43:06.408Z,13.10
2023-02-15T22:45:37.801Z,14.37
2023-02-15T22:48:10.885Z,12.77
2023-02-15T22:50:42.210Z,14.73
2023-02-15T22:53:13.470Z,15.93
2023-02-15T22:55:45.809Z,12.87
2023-02-15T22:58:21.147Z,14.17
2023-02-15T23:00:52.495Z,13.93
2023-02-15T23:03:26.068Z,12.27
2023-02-15T23:05:57.397Z,13.43
2023-02-15T23:08:28.686Z,13.13
2023-02-15T23:11:00.391Z,13.33
2023-02-15T23:13:32.958Z,13.03
2023-02-15T23:16:06.374Z,13.20
2023-02-15T23:18:40.029Z,14.30
2023-02-15T23:21:31.518Z,13.10
2023-02-15T23:24:24.152Z,13.57
2023-02-15T23:27:15.612Z,13.53
2023-02-15T23:29:46.978Z,13.33
2023-02-15T23:32:20.254Z,13.27
2023-02-15T23:34:51.613Z,12.97
2023-02-15T23:37:22.913Z,13.53
2023-02-15T23:40:13.237Z,12.60
2023-02-15T23:42:44.539Z,13.40
2023-02-15T23:45:23.444Z,14.13
2023-02-15T23:48:13.687Z,14.40
2023-02-15T23:50:44.959Z,13.67
2023-02-15T23:53:16.204Z,13.57
2023-02-15T23:55:47.878Z,14.60
2023-02-15T23:58:22.268Z,14.77
